Time;durP1;ratioP1;P1;durP2;ratioP2;P2;SDS_P1;SDS_P2;PMS_P1;PMS_P2;Temp;Humidity;BMP_temperature;BMP_pressure;BME280_temperature;BME280_humidity;BME280_pressure;Samples;Min_cycle;Max_cycle;Signal;HPM_P1;HPM_P2
2023/10/25 00:00:09;;;;;;;5.03;3.50;;;;;;;9.17;62.91;100044.03;5001557;28;96770;-79
2023/10/25 00:02:35;;;;;;;4.63;3.50;;;;;;;9.14;63.22;100042.31;5000145;28;97328;-79
2023/10/25 00:05:00;;;;;;;5.47;3.90;;;;;;;9.16;62.99;100042.53;5002227;28;96987;-79
2023/10/25 00:07:25;;;;;;;4.13;3.83;;;;;;;9.13;63.07;100043.56;5000265;28;97268;-79
2023/10/25 00:09:51;;;;;;;4.50;3.60;;;;;;;9.09;63.08;100040.38;5000986;28;97818;-80
2023/10/25 00:12:16;;;;;;;5.27;3.30;;;;;;;9.10;62.95;100041.88;5000037;28;96644;-79
2023/10/25 00:14:41;;;;;;;3.77;3.57;;;;;;;9.06;63.03;100038.63;5001222;28;97140;-79
2023/10/25 00:17:07;;;;;;;4.73;3.37;;;;;;;9.08;62.99;100041.66;5001331;28;96675;-79
2023/10/25 00:19:33;;;;;;;6.70;3.13;;;;;;;9.05;63.11;100042.69;5001216;28;96825;-79
2023/10/25 00:21:58;;;;;;;3.70;3.37;;;;;;;9.05;62.88;100043.44;5000331;28;98172;-79
2023/10/25 00:24:24;;;;;;;3.97;3.53;;;;;;;9.04;63.14;100039.16;5000465;28;96925;-79
2023/10/25 00:26:49;;;;;;;5.43;3.10;;;;;;;9.00;62.96;100057.28;5001819;28;96610;-79
2023/10/25 00:29:14;;;;;;;6.20;3.87;;;;;;;9.01;63.00;100056.03;5000315;28;97815;-78
2023/10/25 00:31:40;;;;;;;4.10;3.70;;;;;;;8.98;62.66;100041.25;4995002;28;97637;-79
2023/10/25 00:34:05;;;;;;;4.23;3.73;;;;;;;8.93;62.73;100049.59;4997943;28;99348;-79
2023/10/25 00:36:30;;;;;;;4.00;3.60;;;;;;;8.91;62.95;100041.84;5013274;27;99252;-79
2023/10/25 00:38:56;;;;;;;4.40;4.03;;;;;;;8.89;62.98;100035.34;4995627;28;99658;-79
2023/10/25 00:41:22;;;;;;;4.30;3.93;;;;;;;8.89;62.94;100054.66;4997934;28;98590;-79
2023/10/25 00:43:47;;;;;;;4.10;3.70;;;;;;;8.90;62.97;100061.66;4999406;28;97232;-79
2023/10/25 00:46:15;;;;;;;9.90;3.87;;;;;;;8.86;62.99;100067.47;4996200;28;97276;-79
2023/10/25 00:48:46;;;;;;;3.37;3.13;;;;;;;8.86;63.02;100050.91;4999807;28;97889;-79
2023/10/25 00:51:13;;;;;;;3.60;3.30;;;;;;;8.83;62.76;100057.47;4995769;28;97252;-79
2023/10/25 00:53:42;;;;;;;5.50;3.97;;;;;;;8.87;62.93;100040.63;4998274;28;97339;-79
2023/10/25 00:56:11;;;;;;;5.50;3.80;;;;;;;8.84;62.55;100033.41;4998043;28;97073;-80
2023/10/25 00:58:38;;;;;;;6.73;4.20;;;;;;;8.82;62.58;100039.44;4997836;28;97875;-79
2023/10/25 01:01:04;;;;;;;4.80;4.07;;;;;;;8.76;62.73;100030.47;4999361;28;96746;-79
2023/10/25 01:03:30;;;;;;;6.87;3.90;;;;;;;8.72;62.63;100027.25;4997731;28;96865;-79
2023/10/25 01:05:55;;;;;;;3.93;3.57;;;;;;;8.71;62.91;100025.75;4999461;28;96847;-79
2023/10/25 01:08:21;;;;;;;13.53;3.67;;;;;;;8.71;62.80;100019.53;4999071;28;97051;-79
2023/10/25 01:10:49;;;;;;;5.00;3.50;;;;;;;8.66;62.81;100014.81;4998233;28;97775;-79
2023/10/25 01:13:14;;;;;;;5.13;3.70;;;;;;;8.69;62.90;100019.28;4996639;28;97199;-79
2023/10/25 01:15:40;;;;;;;3.93;3.53;;;;;;;8.70;62.87;100020.78;4997755;28;97496;-79
2023/10/25 01:18:05;;;;;;;5.07;4.40;;;;;;;8.65;62.94;100025.09;4996030;28;97476;-80
2023/10/25 01:20:32;;;;;;;5.40;4.50;;;;;;;8.66;62.84;100053.41;4999276;28;97723;-79
2023/10/25 01:22:57;;;;;;;7.73;3.80;;;;;;;8.68;62.99;100026.06;4997716;28;96792;-79
2023/10/25 01:25:23;;;;;;;5.40;3.90;;;;;;;8.60;62.77;100017.59;5000728;28;97319;-80
2023/10/25 01:27:48;;;;;;;7.97;4.40;;;;;;;8.63;62.75;100029.63;4999141;28;97795;-79
2023/10/25 01:30:13;;;;;;;4.60;3.73;;;;;;;8.59;62.83;100059.50;4996524;28;97426;-80
2023/10/25 01:32:39;;;;;;;3.67;3.37;;;;;;;8.53;62.97;100027.19;4998670;28;97337;-79
2023/10/25 01:35:05;;;;;;;4.70;4.20;;;;;;;8.59;62.89;100037.44;4997780;28;97345;-79
2023/10/25 01:37:30;;;;;;;4.57;4.17;;;;;;;8.54;62.82;100047.25;4997433;28;98239;-79
2023/10/25 01:39:55;;;;;;;9.00;4.50;;;;;;;8.54;62.93;100023.19;4998630;28;97454;-79
2023/10/25 01:42:21;;;;;;;4.90;4.23;;;;;;;8.53;62.81;100032.00;4997333;28;97170;-79
2023/10/25 01:44:46;;;;;;;5.73;4.20;;;;;;;8.44;62.89;100033.09;4996759;28;96988;-80
2023/10/25 01:47:11;;;;;;;6.50;4.20;;;;;;;8.49;62.89;100042.56;4997749;28;96919;-79
2023/10/25 01:49:37;;;;;;;12.20;4.73;;;;;;;8.50;62.71;100044.03;4999635;28;99056;-79
2023/10/25 01:52:02;;;;;;;4.53;4.20;;;;;;;8.48;62.84;100022.50;4998548;28;97321;-79
2023/10/25 01:54:27;;;;;;;6.50;4.20;;;;;;;8.48;62.86;100030.78;4997257;28;96915;-79
2023/10/25 01:56:53;;;;;;;4.90;4.00;;;;;;;8.47;62.86;100034.03;4995346;28;96818;-79
2023/10/25 01:59:18;;;;;;;5.67;4.33;;;;;;;8.46;62.86;100030.56;5000624;28;97122;-79
2023/10/25 02:01:43;;;;;;;6.43;4.77;;;;;;;8.46;63.02;100052.59;4998404;28;97368;-79
2023/10/25 02:04:09;;;;;;;5.43;4.13;;;;;;;8.47;62.82;100031.28;4997508;28;96636;-80
2023/10/25 02:06:34;;;;;;;4.57;4.17;;;;;;;8.47;62.85;100021.00;4998011;28;98867;-79
2023/10/25 02:08:59;;;;;;;5.33;4.70;;;;;;;8.43;62.71;100020.56;4999007;28;97715;-79
2023/10/25 02:11:25;;;;;;;5.47;4.53;;;;;;;8.46;63.00;100029.81;4997350;28;97120;-79
2023/10/25 02:13:50;;;;;;;5.83;4.80;;;;;;;8.47;62.97;100032.03;4998780;28;96724;-79
2023/10/25 02:16:17;;;;;;;6.60;4.73;;;;;;;8.45;62.88;100029.03;4996493;28;98498;-79
2023/10/25 02:18:43;;;;;;;4.97;4.57;;;;;;;8.47;62.98;100042.31;4998561;28;97342;-79
2023/10/25 02:21:10;;;;;;;9.43;4.47;;;;;;;8.41;62.76;100019.56;4995869;28;97389;-79
2023/10/25 02:23:35;;;;;;;5.43;4.40;;;;;;;8.44;62.75;100021.31;4998866;28;96671;-79
2023/10/25 02:26:01;;;;;;;5.20;4.70;;;;;;;8.39;62.78;100030.38;4998813;28;97817;-80
2023/10/25 02:28:26;;;;;;;5.00;4.60;;;;;;;8.30;62.51;100014.91;4995833;28;97123;-79
2023/10/25 02:30:52;;;;;;;4.70;4.30;;;;;;;8.31;62.28;100034.97;4998604;28;96601;-80
2023/10/25 02:33:17;;;;;;;5.13;4.63;;;;;;;8.27;62.51;100024.22;5002729;28;97696;-79
2023/10/25 02:35:42;;;;;;;5.10;4.60;;;;;;;8.26;62.35;100033.00;5004247;28;97788;-80
2023/10/25 02:38:08;;;;;;;5.67;4.37;;;;;;;8.21;62.54;100026.28;5004239;28;98812;-80
2023/10/25 02:40:36;;;;;;;6.20;3.73;;;;;;;8.19;62.39;100019.78;5004973;28;97336;-79
2023/10/25 02:43:01;;;;;;;5.90;4.47;;;;;;;8.15;62.12;100046.84;5000743;28;97245;-79
2023/10/25 02:45:27;;;;;;;6.07;4.70;;;;;;;8.16;62.34;100020.81;4999320;28;97734;-80
2023/10/25 02:47:53;;;;;;;4.93;4.43;;;;;;;8.14;62.46;100021.28;5000003;28;97408;-79
2023/10/25 02:50:19;;;;;;;11.53;4.10;;;;;;;8.11;62.62;100019.59;5003259;28;96803;-78
2023/10/25 02:52:48;;;;;;;4.43;3.83;;;;;;;8.12;62.61;100023.81;5003409;28;100715;-79
2023/10/25 02:55:16;;;;;;;6.07;4.27;;;;;;;8.11;62.72;100057.41;5002606;28;96934;-79
2023/10/25 02:57:42;;;;;;;4.90;4.50;;;;;;;8.06;62.81;100014.09;5004043;28;98695;-79
2023/10/25 03:00:10;;;;;;;8.13;4.43;;;;;;;8.08;62.77;100017.09;4999647;28;96571;-79
2023/10/25 03:02:36;;;;;;;5.80;4.80;;;;;;;8.09;62.94;100013.84;5003441;28;96929;-79
2023/10/25 03:05:02;;;;;;;5.20;4.37;;;;;;;8.10;62.88;100020.09;5002197;28;97480;-79
2023/10/25 03:07:27;;;;;;;4.80;4.37;;;;;;;8.09;62.56;100013.84;5002388;28;97058;-79
2023/10/25 03:09:53;;;;;;;5.53;5.03;;;;;;;8.10;62.62;100017.34;5002550;28;97123;-79
2023/10/25 03:12:18;;;;;;;5.40;4.90;;;;;;;8.04;62.64;100014.63;5004224;28;97495;-79
2023/10/25 03:14:43;;;;;;;5.10;4.60;;;;;;;8.00;62.53;100010.66;5002989;28;97265;-79
2023/10/25 03:17:09;;;;;;;5.07;4.40;;;;;;;7.95;62.74;100005.94;5000307;28;97728;-79
2023/10/25 03:19:34;;;;;;;5.20;4.80;;;;;;;7.97;62.76;100012.44;5002353;28;96747;-79
2023/10/25 03:22:00;;;;;;;4.47;4.10;;;;;;;7.96;62.61;100021.97;5000904;28;97478;-79
2023/10/25 03:24:25;;;;;;;5.37;4.87;;;;;;;7.94;62.59;100004.47;4999510;28;97127;-79
2023/10/25 03:26:50;;;;;;;4.37;4.03;;;;;;;7.94;62.57;100002.47;5001736;28;96774;-79
2023/10/25 03:29:16;;;;;;;5.47;4.03;;;;;;;7.89;62.58;100000.50;5000808;28;97131;-79
2023/10/25 03:31:41;;;;;;;5.17;4.67;;;;;;;7.91;62.71;99997.97;5001367;28;97368;-79
2023/10/25 03:34:07;;;;;;;8.47;5.07;;;;;;;7.93;62.74;100003.72;5001114;28;97821;-79
2023/10/25 03:36:32;;;;;;;4.90;4.40;;;;;;;7.91;62.75;99992.47;4996756;28;97886;-80
2023/10/25 03:39:00;;;;;;;6.13;5.13;;;;;;;7.93;62.80;99995.44;5002040;28;97144;-78
2023/10/25 03:41:25;;;;;;;6.63;5.30;;;;;;;7.97;62.71;99993.16;5002815;28;96790;-79
2023/10/25 03:43:50;;;;;;;5.60;5.03;;;;;;;7.93;62.79;100038.75;5000924;28;97470;-79
2023/10/25 03:46:16;;;;;;;5.00;4.50;;;;;;;7.92;62.72;99996.72;5002517;28;97476;-79
2023/10/25 03:48:41;;;;;;;11.80;6.20;;;;;;;7.89;62.91;99997.72;4987802;28;98761;-79
2023/10/25 03:51:08;;;;;;;6.77;4.80;;;;;;;7.93;62.59;99991.94;5008052;28;97216;-79
2023/10/25 03:53:34;;;;;;;5.57;4.97;;;;;;;7.87;62.72;99986.50;5011146;27;97400;-79
2023/10/25 03:56:00;;;;;;;5.37;4.90;;;;;;;7.90;62.80;99985.44;5010163;27;98070;-79
2023/10/25 03:58:26;;;;;;;6.37;4.97;;;;;;;7.92;62.86;99977.44;5000948;28;97327;-79
2023/10/25 04:01:03;;;;;;;6.00;5.40;;;;;;;7.93;62.94;99976.16;5001813;28;101017;-79
2023/10/25 04:03:29;;;;;;;4.93;4.37;;;;;;;7.89;62.84;99967.44;5001762;28;96761;-79
2023/10/25 04:05:54;;;;;;;7.93;4.83;;;;;;;7.91;62.76;99975.94;5000290;28;97779;-79
2023/10/25 04:08:20;;;;;;;6.70;4.90;;;;;;;7.91;62.70;99970.44;4999737;28;97178;-78
2023/10/25 04:10:50;;;;;;;7.90;4.70;;;;;;;7.88;62.66;99960.44;4994110;28;97189;-79
2023/10/25 04:13:16;;;;;;;5.10;4.60;;;;;;;7.89;62.86;99963.94;4995505;28;100311;-78
2023/10/25 04:15:41;;;;;;;6.13;4.80;;;;;;;7.87;62.84;99967.22;4996922;28;98489;-79
2023/10/25 04:18:09;;;;;;;8.40;4.63;;;;;;;7.84;63.09;99962.72;5000949;28;97040;-79
2023/10/25 04:20:34;;;;;;;5.60;5.10;;;;;;;7.85;62.85;99968.97;4996584;28;100874;-76
2023/10/25 04:23:00;;;;;;;5.00;4.50;;;;;;;7.83;62.95;99964.72;4998545;28;97204;-75
2023/10/25 04:25:26;;;;;;;6.20;5.10;;;;;;;7.80;62.75;99965.00;4997757;28;97413;-77
2023/10/25 04:27:53;;;;;;;5.90;4.60;;;;;;;7.77;62.99;99964.03;4998779;28;97188;-76
2023/10/25 04:30:18;;;;;;;5.13;4.63;;;;;;;7.76;63.00;99959.03;4998289;28;97043;-77
2023/10/25 04:32:46;;;;;;;7.17;4.50;;;;;;;7.73;62.89;99952.56;4999350;28;98948;-76
2023/10/25 04:35:12;;;;;;;5.17;4.77;;;;;;;7.70;62.98;99953.56;5000349;28;98142;-76
2023/10/25 04:37:37;;;;;;;5.50;4.17;;;;;;;7.73;63.13;99949.03;4999669;28;96716;-76
2023/10/25 04:40:03;;;;;;;7.67;5.60;;;;;;;7.71;63.29;99973.59;4999900;28;97181;-77
2023/10/25 04:42:29;;;;;;;4.33;3.90;;;;;;;7.72;63.22;99950.31;4997869;28;97261;-76
2023/10/25 04:44:54;;;;;;;5.60;4.50;;;;;;;7.73;63.39;99946.28;4999195;28;98858;-76
2023/10/25 04:47:19;;;;;;;6.43;4.90;;;;;;;7.72;63.28;99944.81;4998018;28;97376;-76
2023/10/25 04:49:45;;;;;;;5.67;3.83;;;;;;;7.73;63.30;99943.53;5000381;28;98675;-76
2023/10/25 04:52:10;;;;;;;5.23;4.73;;;;;;;7.71;63.34;99941.31;4999355;28;98880;-76
2023/10/25 04:54:35;;;;;;;5.10;4.00;;;;;;;7.67;63.22;99940.09;4998777;28;97147;-76
2023/10/25 04:57:01;;;;;;;5.10;3.87;;;;;;;7.66;63.08;99946.88;4998695;28;97098;-75
2023/10/25 04:59:27;;;;;;;5.33;4.50;;;;;;;7.62;63.05;99943.63;4998473;28;97016;-76
2023/10/25 05:01:53;;;;;;;4.40;4.00;;;;;;;7.54;62.95;99937.19;5015289;27;99887;-76
2023/10/25 05:04:18;;;;;;;5.10;4.30;;;;;;;7.54;63.02;99940.69;5002156;28;97276;-76
2023/10/25 05:06:44;;;;;;;4.17;3.77;;;;;;;7.54;63.13;99951.72;4998993;28;97010;-76
2023/10/25 05:09:10;;;;;;;9.17;4.30;;;;;;;7.54;63.19;99937.19;4999333;28;96778;-76
2023/10/25 05:11:38;;;;;;;5.63;4.40;;;;;;;7.53;63.36;99941.94;4997836;28;98378;-76
2023/10/25 05:14:03;;;;;;;5.90;3.77;;;;;;;7.53;63.49;99927.47;4998053;28;97512;-76
2023/10/25 05:16:29;;;;;;;4.30;3.90;;;;;;;7.54;63.25;99934.44;4997354;28;96938;-76
2023/10/25 05:18:55;;;;;;;4.23;3.63;;;;;;;7.55;63.36;99930.44;4997716;28;97274;-76
2023/10/25 05:21:25;;;;;;;5.50;4.17;;;;;;;7.57;63.36;99936.91;4999584;28;97091;-76
2023/10/25 05:23:52;;;;;;;3.80;3.50;;;;;;;7.54;63.33;99934.44;4998485;28;97189;-75
2023/10/25 05:26:18;;;;;;;6.80;3.97;;;;;;;7.55;63.43;99944.22;4999359;28;97404;-76
2023/10/25 05:28:43;;;;;;;4.30;3.90;;;;;;;7.53;63.30;99939.19;4998853;28;97196;-76
2023/10/25 05:31:15;;;;;;;4.13;3.73;;;;;;;7.56;63.36;99938.19;4999998;28;97312;-77
2023/10/25 05:33:40;;;;;;;3.97;3.63;;;;;;;7.54;63.37;99942.69;4999244;28;97784;-76
2023/10/25 05:36:06;;;;;;;4.50;4.10;;;;;;;7.53;63.33;99941.94;4998379;28;97275;-76
2023/10/25 05:38:32;;;;;;;3.07;2.87;;;;;;;7.50;63.40;99981.53;4997902;28;97232;-76
2023/10/25 05:40:59;;;;;;;4.80;3.30;;;;;;;7.51;63.32;99949.22;4998180;28;98200;-76
2023/10/25 05:43:28;;;;;;;4.60;3.20;;;;;;;7.47;63.32;99948.75;4998134;28;97606;-76
2023/10/25 05:45:54;;;;;;;7.40;3.60;;;;;;;7.43;63.39;99951.03;4998375;28;97993;-76
2023/10/25 05:48:20;;;;;;;5.17;4.10;;;;;;;7.38;63.39;99949.06;4999814;28;97090;-75
2023/10/25 05:50:49;;;;;;;3.53;3.23;;;;;;;7.39;63.33;99951.31;4998719;28;97594;-76
2023/10/25 05:53:15;;;;;;;4.80;3.13;;;;;;;7.33;63.38;99938.88;4999354;28;97816;-76
2023/10/25 05:55:41;;;;;;;12.30;3.40;;;;;;;7.35;63.44;99947.34;4997792;28;96880;-76
2023/10/25 05:58:07;;;;;;;4.40;3.20;;;;;;;7.35;63.52;99942.59;4999656;28;97065;-76
2023/10/25 06:00:33;;;;;;;6.40;2.80;;;;;;;7.31;63.53;99941.38;4998136;28;97337;-75
2023/10/25 06:03:03;;;;;;;3.73;3.43;;;;;;;7.32;63.42;99946.38;5013852;27;100482;-75
2023/10/25 06:05:32;;;;;;;3.53;3.10;;;;;;;7.36;63.64;99933.06;4999373;28;96993;-75
2023/10/25 06:07:58;;;;;;;3.60;3.30;;;;;;;7.35;63.61;99944.59;5002795;28;98215;-76
2023/10/25 06:10:24;;;;;;;3.80;3.40;;;;;;;7.37;63.54;99953.84;5002577;28;99170;-75
2023/10/25 06:12:49;;;;;;;3.30;3.00;;;;;;;7.37;63.53;99966.84;5000893;28;99297;-76
2023/10/25 06:15:15;;;;;;;3.30;3.00;;;;;;;7.30;63.25;99954.38;5003968;28;96664;-76
2023/10/25 06:17:41;;;;;;;8.50;3.07;;;;;;;7.26;63.12;99959.41;5003522;28;97100;-76
2023/10/25 06:20:06;;;;;;;3.80;3.43;;;;;;;7.21;63.15;99959.44;5003471;28;97333;-76
2023/10/25 06:22:32;;;;;;;3.67;3.37;;;;;;;7.16;63.36;99965.75;5000806;28;99904;-75
2023/10/25 06:24:57;;;;;;;3.67;3.37;;;;;;;7.12;63.38;99952.25;4999972;28;100271;-76
2023/10/25 06:27:23;;;;;;;3.50;3.20;;;;;;;7.14;63.31;99949.72;5001334;28;99476;-75
2023/10/25 06:29:48;;;;;;;3.23;3.03;;;;;;;7.14;63.36;99960.72;5001153;28;99374;-76
2023/10/25 06:32:13;;;;;;;3.40;3.10;;;;;;;7.12;63.37;99940.47;5001109;28;98514;-76
2023/10/25 06:34:38;;;;;;;5.13;3.50;;;;;;;7.07;63.25;99946.78;5002238;28;97429;-75
2023/10/25 06:37:06;;;;;;;12.07;3.60;;;;;;;7.09;63.23;99955.28;5003921;28;96884;-76
2023/10/25 06:39:31;;;;;;;3.80;3.37;;;;;;;7.07;63.18;99948.25;5000563;28;98755;-75
2023/10/25 06:41:57;;;;;;;4.20;3.80;;;;;;;7.04;63.29;99941.06;5001135;28;97994;-75
2023/10/25 06:44:23;;;;;;;3.60;3.30;;;;;;;6.97;63.35;99932.56;5000801;28;96955;-75
2023/10/25 06:46:48;;;;;;;3.73;3.33;;;;;;;6.98;63.36;99936.84;5000510;28;97202;-75
2023/10/25 06:49:14;;;;;;;4.10;3.20;;;;;;;6.95;63.40;99933.09;5000142;28;97837;-75
2023/10/25 06:51:40;;;;;;;3.40;3.10;;;;;;;6.94;63.31;99919.88;5001785;28;97735;-75
2023/10/25 06:54:06;;;;;;;4.27;3.00;;;;;;;6.95;63.31;99930.34;5002224;28;96807;-76
2023/10/25 06:56:32;;;;;;;3.47;3.17;;;;;;;6.97;63.29;99924.34;5000833;28;97239;-75
2023/10/25 06:58:57;;;;;;;3.60;3.30;;;;;;;6.94;63.42;99937.09;5000093;28;98121;-76
2023/10/25 07:01:27;;;;;;;3.63;3.30;;;;;;;6.98;63.45;99969.84;5002677;28;97251;-75
2023/10/25 07:03:56;;;;;;;2.70;2.50;;;;;;;6.97;63.42;99935.31;5000637;28;96979;-76
2023/10/25 07:06:22;;;;;;;5.93;2.53;;;;;;;6.95;63.55;99943.34;5002903;28;97240;-76
2023/10/25 07:08:48;;;;;;;4.70;3.27;;;;;;;6.99;63.76;99949.31;5001137;28;97312;-75
2023/10/25 07:11:14;;;;;;;4.87;2.90;;;;;;;7.00;63.79;99956.31;5002337;28;96819;-75
2023/10/25 07:13:40;;;;;;;5.53;3.10;;;;;;;7.03;63.62;99969.03;5000541;28;97199;-75
2023/10/25 07:16:07;;;;;;;5.70;3.87;;;;;;;7.04;63.74;99948.53;5000719;28;97412;-76
2023/10/25 07:18:32;;;;;;;3.80;3.33;;;;;;;7.07;63.62;99951.00;5001491;28;97748;-76
2023/10/25 07:20:58;;;;;;;5.23;3.10;;;;;;;7.06;63.72;99948.78;4999639;28;100470;-76
2023/10/25 07:23:24;;;;;;;3.00;2.77;;;;;;;7.12;63.80;99943.22;5001156;28;97057;-76
2023/10/25 07:25:49;;;;;;;3.27;3.07;;;;;;;7.13;63.70;99953.00;4999965;28;97091;-76
2023/10/25 07:28:15;;;;;;;8.27;3.37;;;;;;;7.14;63.74;99949.00;5003063;28;100729;-76
2023/10/25 07:30:41;;;;;;;3.50;3.20;;;;;;;7.15;63.75;99953.22;5001063;28;96856;-76
2023/10/25 07:33:07;;;;;;;3.00;2.80;;;;;;;7.13;63.69;99944.75;5001868;28;96960;-76
2023/10/25 07:35:32;;;;;;;2.80;2.60;;;;;;;7.16;63.75;99944.47;5000895;28;97379;-75
2023/10/25 07:37:58;;;;;;;3.30;3.00;;;;;;;7.23;63.88;99954.16;5001248;28;97246;-75
2023/10/25 07:40:23;;;;;;;5.47;3.40;;;;;;;7.25;63.91;99990.16;5000353;28;97671;-75
2023/10/25 07:42:48;;;;;;;3.53;2.63;;;;;;;7.25;63.82;99981.91;5022313;28;96657;-76
2023/10/25 07:45:14;;;;;;;3.27;2.97;;;;;;;7.29;63.83;99947.38;5019015;28;96946;-76
2023/10/25 07:47:40;;;;;;;7.50;3.13;;;;;;;7.33;63.84;99947.13;5015771;28;96710;-75
2023/10/25 07:50:06;;;;;;;2.70;2.20;;;;;;;7.38;63.85;99955.31;5007188;28;96729;-76
2023/10/25 07:52:35;;;;;;;5.43;2.60;;;;;;;7.42;63.97;99946.81;5008211;28;96933;-76
2023/10/25 07:55:03;;;;;;;3.90;3.17;;;;;;;7.47;64.02;99948.75;5002338;28;96769;-76
2023/10/25 07:57:29;;;;;;;2.87;2.67;;;;;;;7.49;64.01;99960.75;5002341;28;97966;-76
2023/10/25 07:59:54;;;;;;;3.83;3.50;;;;;;;7.57;64.07;99944.44;5002199;28;97092;-76
2023/10/25 08:02:19;;;;;;;3.40;3.10;;;;;;;7.66;64.13;99933.84;5001636;28;97196;-76
2023/10/25 08:04:45;;;;;;;3.70;3.40;;;;;;;7.75;64.16;99941.00;5002402;28;97099;-76
2023/10/25 08:07:10;;;;;;;4.40;3.03;;;;;;;7.77;64.16;99930.22;5003452;28;96842;-76
2023/10/25 08:09:39;;;;;;;3.00;2.70;;;;;;;7.85;64.23;99942.19;4999490;28;98006;-75
2023/10/25 08:12:05;;;;;;;3.90;3.07;;;;;;;7.90;64.22;99944.13;4998974;28;96982;-76
2023/10/25 08:14:30;;;;;;;13.93;2.93;;;;;;;7.95;64.22;99948.84;4997574;28;101152;-75
2023/10/25 08:16:56;;;;;;;6.00;2.40;;;;;;;7.99;64.24;99948.59;4997959;28;96717;-76
2023/10/25 08:19:21;;;;;;;6.57;3.20;;;;;;;7.99;64.27;99932.78;5001030;28;97667;-76
2023/10/25 08:21:46;;;;;;;3.10;2.90;;;;;;;8.02;64.33;99937.28;4999780;28;98717;-75
2023/10/25 08:24:12;;;;;;;2.60;2.40;;;;;;;8.07;64.20;99930.97;4998626;28;97614;-76
2023/10/25 08:26:39;;;;;;;2.33;2.20;;;;;;;8.04;64.30;99928.47;4998679;28;97561;-75
2023/10/25 08:29:08;;;;;;;2.90;2.57;;;;;;;8.15;64.39;99923.63;4997163;28;97080;-75
2023/10/25 08:31:34;;;;;;;2.77;2.30;;;;;;;8.18;64.56;99919.88;4998780;28;97022;-76
2023/10/25 08:33:59;;;;;;;3.63;2.70;;;;;;;8.21;64.50;99920.81;4999942;28;97047;-76
2023/10/25 08:36:28;;;;;;;3.27;2.60;;;;;;;8.26;64.29;99918.03;4999207;28;98433;-76
2023/10/25 08:38:54;;;;;;;3.57;2.50;;;;;;;8.34;64.78;99927.19;4998420;28;97239;-76
2023/10/25 08:41:19;;;;;;;4.20;2.90;;;;;;;8.38;64.74;99913.84;4993732;28;96995;-76
2023/10/25 08:43:45;;;;;;;2.40;2.30;;;;;;;8.50;64.88;99912.47;4997604;28;97303;-75
2023/10/25 08:46:12;;;;;;;5.83;2.63;;;;;;;8.58;64.71;99914.66;4997159;28;97195;-76
2023/10/25 08:48:38;;;;;;;3.40;3.10;;;;;;;8.64;64.84;99918.06;4998099;28;97020;-76
2023/10/25 08:51:05;;;;;;;3.40;2.60;;;;;;;8.70;64.81;99927.78;4996817;28;96934;-76
2023/10/25 08:53:31;;;;;;;3.57;2.37;;;;;;;8.78;65.04;99914.13;4999884;28;96830;-76
2023/10/25 08:55:57;;;;;;;2.80;2.40;;;;;;;8.87;64.98;99919.25;4998945;28;97646;-76
2023/10/25 08:58:25;;;;;;;2.30;2.20;;;;;;;8.97;65.14;99914.88;4999901;28;96960;-77
2023/10/25 09:00:52;;;;;;;3.63;2.10;;;;;;;9.07;64.95;99902.19;4998143;28;97123;-76
2023/10/25 09:03:32;;;;;;;3.20;2.10;;;;;;;9.19;65.48;99895.22;5000432;28;97163;-76
2023/10/25 09:05:59;;;;;;;2.30;2.13;;;;;;;9.26;65.21;99927.72;4995766;28;98721;-76
2023/10/25 09:08:24;;;;;;;2.83;1.73;;;;;;;9.37;65.50;99888.91;5002211;28;97001;-76
2023/10/25 09:10:57;;;;;;;4.13;1.80;;;;;;;9.51;65.51;99882.19;4998724;28;97664;-77
2023/10/25 09:13:24;;;;;;;3.17;2.13;;;;;;;9.62;65.44;99904.09;4998645;28;96722;-76
2023/10/25 09:15:50;;;;;;;2.27;2.17;;;;;;;9.73;65.54;99886.59;4997803;28;98287;-76
2023/10/25 09:18:16;;;;;;;2.30;2.10;;;;;;;9.80;65.63;99883.94;4999741;28;98455;-76
2023/10/25 09:20:48;;;;;;;2.70;1.87;;;;;;;9.93;65.84;99883.22;4998984;28;97473;-76
2023/10/25 09:23:15;;;;;;;2.00;1.90;;;;;;;10.01;65.49;99879.31;4998262;28;96854;-76
2023/10/25 09:25:40;;;;;;;7.50;2.33;;;;;;;10.04;65.64;99878.22;4998794;28;96794;-76
2023/10/25 09:28:22;;;;;;;9.03;2.37;;;;;;;10.21;66.09;99879.94;4998072;28;97644;-76
2023/10/25 09:30:48;;;;;;;1.40;1.30;;;;;;;10.23;65.68;99878.13;4997681;28;96916;-76
2023/10/25 09:33:13;;;;;;;1.83;1.57;;;;;;;10.28;65.80;99857.91;4999971;28;96920;-76
2023/10/25 09:35:39;;;;;;;1.93;1.57;;;;;;;10.38;65.72;99849.91;5000611;28;99479;-76
2023/10/25 09:38:04;;;;;;;1.57;1.20;;;;;;;10.47;65.63;99853.00;4996697;28;97602;-76
2023/10/25 09:40:29;;;;;;;1.87;1.70;;;;;;;10.58;65.85;99857.53;4996106;28;98305;-77
2023/10/25 09:42:59;;;;;;;5.70;1.90;;;;;;;10.68;65.69;99845.50;4995613;28;97416;-76
2023/10/25 09:45:30;;;;;;;4.97;1.50;;;;;;;10.80;65.86;99867.41;4994629;28;98006;-76
2023/10/25 09:48:02;;;;;;;1.30;1.20;;;;;;;10.88;65.52;99871.00;4996241;28;101568;-76
2023/10/25 09:50:43;;;;;;;1.60;1.07;;;;;;;10.94;65.87;99861.28;5013502;27;97195;-76
2023/10/25 09:53:26;;;;;;;5.07;1.23;;;;;;;11.00;65.68;99853.63;4998287;28;97495;-76
2023/10/25 09:56:03;;;;;;;6.23;1.80;;;;;;;11.07;65.66;99852.22;5000527;28;97376;-76
2023/10/25 09:58:34;;;;;;;2.37;1.37;;;;;;;11.11;65.61;99842.25;4996892;28;97436;-76
2023/10/25 10:01:00;;;;;;;3.27;1.40;;;;;;;11.23;65.66;99837.19;4998596;28;96743;-76
2023/10/25 10:03:49;;;;;;;2.60;1.30;;;;;;;11.33;65.86;99829.91;4996938;28;96963;-75
2023/10/25 10:06:37;;;;;;;4.03;2.13;;;;;;;11.36;65.97;99837.88;4996321;28;97947;-75
2023/10/25 10:09:16;;;;;;;3.57;1.50;;;;;;;11.42;65.79;99827.41;4994650;28;97305;-75
2023/10/25 10:11:48;;;;;;;1.27;1.10;;;;;;;11.48;65.69;99825.22;4997347;28;97239;-75
2023/10/25 10:14:39;;;;;;;4.70;1.30;;;;;;;11.53;65.78;99816.03;4997905;28;97073;-75
2023/10/25 10:17:09;;;;;;;1.57;1.47;;;;;;;11.62;65.77;99834.19;4996912;28;97506;-75
2023/10/25 10:19:43;;;;;;;4.50;1.77;;;;;;;11.70;65.57;99812.81;4997544;28;97061;-75
2023/10/25 10:22:13;;;;;;;6.17;1.90;;;;;;;11.77;65.48;99816.91;4998233;28;97179;-74
2023/10/25 10:24:48;;;;;;;5.70;2.30;;;;;;;11.80;65.34;99802.72;4996619;28;97365;-75
2023/10/25 10:27:18;;;;;;;4.77;1.90;;;;;;;11.84;65.24;99807.91;4996150;28;97273;-75
2023/10/25 10:29:48;;;;;;;2.80;1.97;;;;;;;11.91;65.25;99812.78;4996253;28;97619;-75
2023/10/25 10:32:14;;;;;;;4.40;1.90;;;;;;;11.98;65.31;99810.06;4997361;28;97053;-76
2023/10/25 10:34:44;;;;;;;6.33;2.20;;;;;;;12.07;65.17;99809.53;4997125;28;97166;-75
2023/10/25 10:37:12;;;;;;;5.60;3.00;;;;;;;12.12;65.14;99813.44;4997740;28;99292;-75
2023/10/25 10:39:58;;;;;;;9.60;4.27;;;;;;;12.17;65.04;99813.31;4998416;28;97178;-76
2023/10/25 10:42:36;;;;;;;12.53;5.00;;;;;;;12.27;64.93;99808.72;4996910;28;97320;-76
2023/10/25 10:45:04;;;;;;;10.77;5.37;;;;;;;12.36;64.79;99806.75;4996333;28;96939;-76
2023/10/25 10:47:41;;;;;;;9.97;5.03;;;;;;;12.45;64.55;99809.72;4997680;28;98928;-75
2023/10/25 10:50:21;;;;;;;8.10;5.73;;;;;;;12.52;64.15;99838.78;4997635;28;97070;-75
2023/10/25 10:52:49;;;;;;;5.70;4.70;;;;;;;12.59;64.46;99802.75;4999022;28;97717;-75
2023/10/25 10:55:20;;;;;;;4.33;3.90;;;;;;;12.67;64.10;99833.28;5000976;28;97385;-75
2023/10/25 10:57:46;;;;;;;4.87;3.67;;;;;;;12.75;64.13;99809.06;4999550;28;98101;-75
2023/10/25 11:00:16;;;;;;;5.73;3.33;;;;;;;12.81;64.06;99809.63;4998296;28;97124;-75
2023/10/25 11:02:44;;;;;;;7.57;2.70;;;;;;;12.87;63.83;99810.94;4996196;28;97132;-75
2023/10/25 11:05:10;;;;;;;8.13;2.60;;;;;;;12.92;63.65;99807.22;5000201;28;97416;-75
2023/10/25 11:07:36;;;;;;;2.70;2.47;;;;;;;13.01;63.58;99800.44;5000421;28;97501;-76
2023/10/25 11:10:02;;;;;;;3.80;2.70;;;;;;;13.12;63.51;99799.34;4999439;28;99348;-76
2023/10/25 11:12:27;;;;;;;4.80;2.60;;;;;;;13.23;63.37;99793.41;5001372;28;97040;-75
2023/10/25 11:14:53;;;;;;;4.87;3.43;;;;;;;13.37;63.11;99786.38;5002791;28;97344;-76
2023/10/25 11:17:19;;;;;;;12.67;4.47;;;;;;;13.51;62.95;99790.44;4999909;28;97791;-76
2023/10/25 11:19:47;;;;;;;5.63;3.30;;;;;;;13.65;62.93;99786.88;5001886;28;97729;-75
2023/10/25 11:22:13;;;;;;;4.40;3.93;;;;;;;13.84;62.46;99772.59;4998811;28;99011;-75
2023/10/25 11:24:38;;;;;;;4.60;4.20;;;;;;;13.97;62.15;99772.38;5000888;28;96929;-75
2023/10/25 11:27:05;;;;;;;5.20;4.77;;;;;;;14.11;62.15;99768.06;4999043;28;97307;-76
2023/10/25 11:29:39;;;;;;;4.90;4.20;;;;;;;14.32;61.76;99765.72;5000772;28;97593;-76
2023/10/25 11:32:12;;;;;;;4.40;4.10;;;;;;;14.48;61.49;99758.78;4998523;28;97146;-75
2023/10/25 11:34:39;;;;;;;4.10;3.80;;;;;;;14.55;61.26;99751.69;5001278;28;96953;-76